Terminal Aerodrome Forecast
Issued by NWS

Home | Current Version | Previous Version | Text Only | Print | Product List | Glossary Off
Versions: 1 2 3 4 5 6 7 8 9 10 11 12 13 14

000
FTUS43 KMPX 271700
TAFRNH
TAF
KRNH 271720Z 2718/2818 33015G22KT P6SM -SHRA BKN025 OVC045
     FM272200 36010KT P6SM VCSH SCT035 BKN050
     FM280400 34004KT P6SM SCT050=

USA.gov is the U.S. government's official web portal to all federal, state and local government web resources and services.